createdAt,value
2018-05-25T00:01:57.180Z,3.00
2018-05-25T00:04:25.477Z,3.17
2018-05-25T00:06:53.954Z,3.23
2018-05-25T00:09:21.501Z,3.67
2018-05-25T00:11:49.772Z,3.13
2018-05-25T00:14:18.055Z,3.07
2018-05-25T00:16:46.320Z,2.60
2018-05-25T00:19:14.588Z,2.87
2018-05-25T00:21:42.872Z,3.27
2018-05-25T00:24:11.140Z,2.87
2018-05-25T00:26:39.556Z,3.33
2018-05-25T00:29:07.060Z,2.77
2018-05-25T00:31:34.585Z,3.70
2018-05-25T00:34:02.190Z,2.73
2018-05-25T00:36:29.733Z,3.00
2018-05-25T00:38:58.175Z,2.87
2018-05-25T00:41:25.827Z,3.03
2018-05-25T00:43:53.368Z,3.33
2018-05-25T00:46:20.868Z,2.93
2018-05-25T00:48:48.465Z,3.10
2018-05-25T00:51:16.737Z,3.07
2018-05-25T00:53:45.047Z,3.50
2018-05-25T00:56:12.548Z,3.13
2018-05-25T00:58:40.058Z,3.00
2018-05-25T01:01:07.582Z,3.43
2018-05-25T01:03:35.877Z,3.40
2018-05-25T01:06:03.483Z,3.50
2018-05-25T01:08:30.979Z,2.80
2018-05-25T01:10:59.271Z,3.07
2018-05-25T01:13:26.779Z,2.97
2018-05-25T01:15:54.292Z,3.13
2018-05-25T01:18:21.824Z,3.50
2018-05-25T01:20:50.101Z,3.13
2018-05-25T01:23:18.483Z,3.37
2018-05-25T01:25:45.995Z,2.97
2018-05-25T01:28:13.514Z,3.03
2018-05-25T01:30:41.020Z,2.93
2018-05-25T01:33:08.534Z,3.07
2018-05-25T01:35:36.061Z,2.50
2018-05-25T01:38:04.327Z,3.30
2018-05-25T01:40:33.795Z,2.70
2018-05-25T01:43:01.315Z,3.23
2018-05-25T01:45:28.832Z,2.63
2018-05-25T01:47:57.850Z,2.97
2018-05-25T01:50:26.136Z,3.30
2018-05-25T01:52:54.631Z,3.50
2018-05-25T01:55:22.126Z,3.20
2018-05-25T01:57:49.651Z,2.83
2018-05-25T02:00:17.151Z,3.10
2018-05-25T02:02:44.683Z,2.83
2018-05-25T02:05:12.183Z,3.30
2018-05-25T02:07:40.497Z,2.90
2018-05-25T02:10:08.002Z,2.83
2018-05-25T02:12:35.523Z,2.93
2018-05-25T02:15:04.015Z,2.70
2018-05-25T02:17:31.514Z,2.97
2018-05-25T02:19:59.811Z,2.80
2018-05-25T02:22:27.299Z,2.73
2018-05-25T02:24:54.830Z,2.57
2018-05-25T02:27:22.338Z,2.53
2018-05-25T02:29:49.850Z,2.73
2018-05-25T02:32:17.339Z,3.70
2018-05-25T02:34:44.861Z,2.30
2018-05-25T02:37:12.376Z,2.63
2018-05-25T02:39:41.908Z,3.40
2018-05-25T02:42:09.429Z,3.10
2018-05-25T02:44:38.426Z,3.13
2018-05-25T02:47:09.404Z,3.23
2018-05-25T02:49:36.904Z,3.50
2018-05-25T02:52:04.435Z,3.13
2018-05-25T02:54:31.939Z,3.80
2018-05-25T02:56:59.495Z,3.40
2018-05-25T02:59:27.008Z,2.80
2018-05-25T03:01:54.552Z,3.10
2018-05-25T03:04:22.047Z,3.03
2018-05-25T03:06:49.559Z,3.17
2018-05-25T03:09:19.078Z,2.90
2018-05-25T03:11:46.577Z,2.90
2018-05-25T03:14:17.597Z,2.90
2018-05-25T03:16:45.103Z,3.00
2018-05-25T03:19:13.405Z,2.93
2018-05-25T03:21:40.911Z,2.80
2018-05-25T03:24:09.500Z,2.90
2018-05-25T03:26:37.074Z,3.40
2018-05-25T03:29:05.428Z,3.13
2018-05-25T03:31:32.943Z,3.50
2018-05-25T03:34:00.492Z,2.70
2018-05-25T03:36:27.999Z,3.63
2018-05-25T03:38:58.967Z,3.80
2018-05-25T03:41:27.256Z,2.80
2018-05-25T03:43:54.768Z,3.50
2018-05-25T03:46:24.235Z,3.43
2018-05-25T03:48:51.738Z,3.10
2018-05-25T03:51:19.261Z,2.80
2018-05-25T03:53:47.715Z,2.73
2018-05-25T03:56:15.235Z,3.40
2018-05-25T03:58:54.465Z,2.10
2018-05-25T04:01:33.939Z,3.40
2018-05-25T04:04:01.454Z,3.13
2018-05-25T04:06:28.988Z,2.60
2018-05-25T04:08:56.553Z,2.97
2018-05-25T04:11:25.023Z,2.80
2018-05-25T04:13:52.545Z,2.87
2018-05-25T04:16:20.051Z,2.50
2018-05-25T04:18:47.558Z,2.93
2018-05-25T04:21:15.061Z,2.80
2018-05-25T04:23:42.805Z,3.30
2018-05-25T04:26:10.313Z,2.73
2018-05-25T04:28:38.595Z,2.60
2018-05-25T04:31:06.852Z,2.27
2018-05-25T04:33:34.353Z,3.03
2018-05-25T04:36:01.876Z,2.67
2018-05-25T04:38:30.146Z,2.83
2018-05-25T04:40:58.435Z,2.73
2018-05-25T04:43:26.713Z,2.70
2018-05-25T04:45:56.969Z,3.17
2018-05-25T04:48:24.482Z,3.23
2018-05-25T04:50:52.770Z,2.90
2018-05-25T04:53:20.275Z,2.27
2018-05-25T04:55:49.752Z,3.57
2018-05-25T04:58:17.307Z,2.80
2018-05-25T05:00:44.807Z,2.50
2018-05-25T05:03:15.090Z,3.17
2018-05-25T05:05:42.581Z,2.63
2018-05-25T05:08:10.120Z,2.37
2018-05-25T05:10:37.633Z,2.63
2018-05-25T05:13:05.899Z,2.50
2018-05-25T05:15:34.196Z,2.33
2018-05-25T05:18:01.702Z,3.10
2018-05-25T05:20:30.750Z,2.40
2018-05-25T05:22:58.266Z,2.67
2018-05-25T05:25:25.779Z,2.57
2018-05-25T05:27:55.288Z,2.60
2018-05-25T05:30:23.819Z,2.83
2018-05-25T05:32:52.107Z,2.67
2018-05-25T05:35:22.120Z,3.17
2018-05-25T05:37:49.656Z,3.20
2018-05-25T05:40:17.925Z,2.93
2018-05-25T05:42:46.256Z,3.13
2018-05-25T05:45:13.761Z,3.30
2018-05-25T05:47:42.016Z,2.93
2018-05-25T05:50:09.531Z,3.30
2018-05-25T05:52:37.051Z,3.00
2018-05-25T05:55:06.512Z,2.47
2018-05-25T05:57:34.059Z,2.30
2018-05-25T06:00:01.582Z,2.80
2018-05-25T06:02:29.855Z,2.40
2018-05-25T06:04:58.138Z,2.00
2018-05-25T06:07:26.413Z,1.97
2018-05-25T06:09:54.989Z,2.80
2018-05-25T06:12:24.618Z,2.20
2018-05-25T06:14:52.399Z,1.90
2018-05-25T06:17:20.266Z,2.87
2018-05-25T06:19:48.950Z,2.80
2018-05-25T06:22:17.638Z,2.20
2018-05-25T06:24:45.609Z,2.67
2018-05-25T06:27:13.180Z,3.33
2018-05-25T06:29:40.747Z,2.33
2018-05-25T06:32:08.398Z,2.50
2018-05-25T06:34:35.899Z,2.30
2018-05-25T06:37:04.180Z,2.20
2018-05-25T06:39:32.456Z,2.60
2018-05-25T06:42:02.711Z,1.90
2018-05-25T06:44:30.204Z,2.60
2018-05-25T06:46:59.210Z,3.10
2018-05-25T06:49:26.756Z,2.17
2018-05-25T06:51:54.272Z,2.60
2018-05-25T06:54:23.781Z,3.00
2018-05-25T06:56:51.275Z,3.07
2018-05-25T06:59:18.804Z,3.10
2018-05-25T07:01:46.308Z,2.60
2018-05-25T07:04:14.593Z,2.70
2018-05-25T07:06:43.817Z,2.70
2018-05-25T07:09:11.316Z,2.73
2018-05-25T07:11:38.833Z,2.33
2018-05-25T07:14:06.333Z,2.00
2018-05-25T07:16:34.631Z,2.70
2018-05-25T07:19:03.864Z,2.50
2018-05-25T07:21:31.384Z,3.03
2018-05-25T07:23:59.760Z,3.00
2018-05-25T07:26:28.020Z,2.63
2018-05-25T07:28:55.571Z,2.60
2018-05-25T07:31:23.087Z,2.60
2018-05-25T07:33:50.607Z,2.50
2018-05-25T07:36:18.880Z,2.70
2018-05-25T07:38:47.151Z,2.50
2018-05-25T07:41:14.671Z,2.93
2018-05-25T07:43:43.135Z,3.00
2018-05-25T07:46:10.663Z,2.50
2018-05-25T07:48:38.932Z,2.90
2018-05-25T07:51:08.215Z,2.50
2018-05-25T07:53:35.723Z,2.80
2018-05-25T07:56:03.237Z,2.30
2018-05-25T07:58:31.526Z,2.90
2018-05-25T08:01:00.011Z,2.07
2018-05-25T08:03:27.558Z,2.50
2018-05-25T08:05:56.782Z,2.43
2018-05-25T08:08:24.314Z,2.37
2018-05-25T08:10:52.566Z,2.93
2018-05-25T08:13:20.076Z,2.87
2018-05-25T08:15:47.600Z,2.70
2018-05-25T08:18:15.872Z,2.40
2018-05-25T08:20:44.199Z,2.40
2018-05-25T08:23:11.708Z,2.03
2018-05-25T08:25:40.044Z,2.37
2018-05-25T08:28:07.543Z,2.33
2018-05-25T08:30:35.883Z,2.40
2018-05-25T08:33:03.372Z,2.23
2018-05-25T08:35:31.631Z,2.40
2018-05-25T08:37:59.152Z,2.27
2018-05-25T08:40:26.661Z,2.10
2018-05-25T08:42:54.940Z,2.00
2018-05-25T08:45:23.200Z,2.30
2018-05-25T08:47:50.722Z,2.60
2018-05-25T08:50:18.291Z,2.10
2018-05-25T08:52:45.787Z,2.23
2018-05-25T08:55:14.077Z,2.43
2018-05-25T08:57:41.586Z,1.87
2018-05-25T09:00:09.112Z,1.70
2018-05-25T09:02:36.630Z,1.97
2018-05-25T09:05:04.919Z,1.93
2018-05-25T09:07:32.432Z,2.30
2018-05-25T09:09:59.950Z,2.07
2018-05-25T09:12:28.410Z,2.00
2018-05-25T09:14:56.674Z,2.30
2018-05-25T09:17:24.961Z,2.40
2018-05-25T09:19:52.459Z,1.50
2018-05-25T09:22:19.980Z,1.70
2018-05-25T09:24:47.487Z,2.10
2018-05-25T09:27:16.981Z,2.30
2018-05-25T09:29:44.530Z,2.30
2018-05-25T09:32:12.030Z,1.93
2018-05-25T09:34:40.402Z,1.93
2018-05-25T09:37:08.855Z,2.00
2018-05-25T09:39:36.393Z,1.90
2018-05-25T09:42:03.887Z,1.97
2018-05-25T09:44:31.406Z,1.90
2018-05-25T09:46:59.879Z,1.70
2018-05-25T09:49:27.380Z,2.17
2018-05-25T09:51:54.912Z,2.37
2018-05-25T09:54:22.419Z,1.70
2018-05-25T09:57:00.640Z,2.30
2018-05-25T09:59:28.147Z,2.27
2018-05-25T10:01:55.655Z,2.10
2018-05-25T10:04:23.158Z,1.70
2018-05-25T10:06:50.660Z,1.97
2018-05-25T10:09:18.947Z,2.03
2018-05-25T10:11:46.455Z,1.80
2018-05-25T10:14:15.914Z,1.60
2018-05-25T10:16:43.414Z,1.80
2018-05-25T10:19:10.933Z,1.87
2018-05-25T10:21:38.435Z,2.37
2018-05-25T10:24:08.722Z,1.63
2018-05-25T10:26:36.230Z,1.90
2018-05-25T10:29:04.503Z,2.07
2018-05-25T10:31:32.802Z,1.63
2018-05-25T10:34:00.294Z,2.00
2018-05-25T10:36:27.817Z,2.03
2018-05-25T10:38:55.327Z,1.97
2018-05-25T10:41:23.607Z,1.80
2018-05-25T10:43:51.151Z,1.73
2018-05-25T10:46:18.658Z,2.20
2018-05-25T10:48:46.191Z,1.70
2018-05-25T10:51:14.693Z,2.03
2018-05-25T10:53:42.983Z,1.83
2018-05-25T10:56:10.492Z,1.90
2018-05-25T10:58:39.731Z,2.27
2018-05-25T11:01:07.291Z,1.50
2018-05-25T11:03:34.830Z,1.70
2018-05-25T11:06:03.132Z,2.17
2018-05-25T11:08:30.638Z,1.60
2018-05-25T11:10:58.169Z,1.40
2018-05-25T11:13:25.680Z,2.47
2018-05-25T11:15:54.008Z,1.70
2018-05-25T11:18:21.520Z,2.23
2018-05-25T11:20:49.787Z,2.03
2018-05-25T11:23:18.076Z,2.10
2018-05-25T11:25:45.586Z,1.80
2018-05-25T11:28:13.115Z,2.20
2018-05-25T11:30:41.568Z,1.77
2018-05-25T11:33:09.092Z,1.53
2018-05-25T11:38:11.306Z,1.83
2018-05-25T11:40:39.588Z,1.90
2018-05-25T11:43:07.095Z,2.00
2018-05-25T11:45:36.560Z,1.60
2018-05-25T11:48:04.061Z,1.67
2018-05-25T11:50:32.368Z,1.80
2018-05-25T11:53:00.673Z,1.90
2018-05-25T11:55:28.180Z,1.90
2018-05-25T11:57:56.697Z,2.00
2018-05-25T12:00:24.952Z,1.77
2018-05-25T12:02:53.283Z,1.90
2018-05-25T12:05:21.746Z,1.87
2018-05-25T12:07:49.271Z,1.50
2018-05-25T12:10:17.526Z,1.93
2018-05-25T12:12:46.993Z,2.03
2018-05-25T12:15:15.449Z,1.97
2018-05-25T12:17:42.946Z,2.07
2018-05-25T12:20:10.467Z,1.90
2018-05-25T12:22:37.980Z,1.80
2018-05-25T12:25:05.503Z,2.10
2018-05-25T12:27:33.010Z,1.53
2018-05-25T12:30:01.283Z,1.70
2018-05-25T12:32:28.829Z,1.43
2018-05-25T12:34:57.096Z,1.50
2018-05-25T12:37:24.646Z,1.90
2018-05-25T12:39:52.920Z,1.70
2018-05-25T12:42:20.441Z,1.90
2018-05-25T12:45:00.898Z,2.03
2018-05-25T12:47:28.475Z,1.90
2018-05-25T12:49:55.987Z,1.93
2018-05-25T12:52:24.267Z,1.43
2018-05-25T12:54:52.557Z,1.50
2018-05-25T12:57:20.064Z,1.50
2018-05-25T12:59:47.592Z,1.77
2018-05-25T13:02:16.052Z,1.73
2018-05-25T13:04:43.580Z,2.00
2018-05-25T13:07:11.846Z,1.50
2018-05-25T13:09:40.141Z,1.70
2018-05-25T13:12:07.642Z,1.67
2018-05-25T13:14:35.138Z,1.97
2018-05-25T13:17:03.429Z,1.90
2018-05-25T13:19:30.935Z,2.20
2018-05-25T13:21:58.461Z,2.10
2018-05-25T13:24:26.722Z,2.10
2018-05-25T13:26:54.270Z,1.90
2018-05-25T13:29:22.532Z,2.03
2018-05-25T13:31:50.838Z,2.17
2018-05-25T13:34:18.368Z,2.00
2018-05-25T13:36:46.630Z,1.80
2018-05-25T13:39:14.159Z,1.70
2018-05-25T13:41:41.688Z,1.83
2018-05-25T13:44:09.245Z,1.80
2018-05-25T13:46:36.741Z,1.93
2018-05-25T13:49:04.266Z,1.53
2018-05-25T13:51:31.771Z,1.70
2018-05-25T13:53:59.272Z,1.67
2018-05-25T13:56:26.801Z,1.80
2018-05-25T13:58:55.066Z,2.30
2018-05-25T14:01:25.476Z,1.60
2018-05-25T14:03:53.047Z,1.60
2018-05-25T14:06:20.588Z,1.80
2018-05-25T14:08:48.098Z,1.47
2018-05-25T14:11:15.619Z,1.80
2018-05-25T14:13:44.656Z,1.70
2018-05-25T14:16:12.171Z,1.87
2018-05-25T14:18:39.693Z,1.40
2018-05-25T14:21:07.192Z,2.03
2018-05-25T14:23:36.680Z,1.47
2018-05-25T14:26:04.999Z,1.60
2018-05-25T14:28:32.523Z,1.83
2018-05-25T14:31:00.040Z,1.60
2018-05-25T14:33:28.503Z,1.67
2018-05-25T14:35:56.054Z,1.53
2018-05-25T14:38:23.591Z,1.53
2018-05-25T14:40:51.879Z,1.50
2018-05-25T14:43:19.387Z,1.83
2018-05-25T14:45:48.863Z,1.80
2018-05-25T14:48:16.371Z,1.50
2018-05-25T14:50:43.873Z,1.40
2018-05-25T14:53:11.400Z,1.50
2018-05-25T14:55:39.664Z,1.47
2018-05-25T14:58:09.921Z,1.97
2018-05-25T15:00:37.420Z,1.53
2018-05-25T15:03:04.985Z,1.53
2018-05-25T15:05:34.948Z,1.70
2018-05-25T15:08:02.443Z,1.50
2018-05-25T15:10:29.955Z,1.40
2018-05-25T15:12:57.467Z,1.50
2018-05-25T15:15:25.014Z,1.50
2018-05-25T15:17:53.486Z,1.60
2018-05-25T15:20:21.009Z,1.73
2018-05-25T15:22:48.527Z,1.63
2018-05-25T15:25:16.067Z,1.70
2018-05-25T15:27:43.572Z,1.27
2018-05-25T15:30:11.153Z,1.83
2018-05-25T15:32:38.778Z,1.70
2018-05-25T15:35:06.189Z,1.70
2018-05-25T15:37:33.724Z,1.40
2018-05-25T15:40:01.247Z,1.40
2018-05-25T15:42:29.503Z,1.70
2018-05-25T15:44:57.023Z,1.50
2018-05-25T15:47:24.516Z,1.37
2018-05-25T15:49:52.062Z,1.57
2018-05-25T15:52:19.557Z,1.63
2018-05-25T15:54:49.816Z,1.47
2018-05-25T15:57:18.340Z,1.33
2018-05-25T15:59:46.659Z,1.30
2018-05-25T16:02:14.274Z,1.60
2018-05-25T16:04:41.739Z,1.70
2018-05-25T16:07:10.019Z,1.83
2018-05-25T16:09:38.397Z,1.23
2018-05-25T16:12:06.677Z,1.77
2018-05-25T16:14:34.945Z,1.37
2018-05-25T16:17:03.212Z,1.83
2018-05-25T16:19:30.738Z,1.60
2018-05-25T16:21:58.247Z,1.60
2018-05-25T16:24:25.771Z,1.50
2018-05-25T16:26:53.287Z,1.70
2018-05-25T16:29:20.811Z,1.80
2018-05-25T16:31:49.115Z,1.20
2018-05-25T16:34:19.592Z,1.50
2018-05-25T16:36:47.094Z,1.40
2018-05-25T16:39:14.640Z,1.20
2018-05-25T16:41:42.137Z,1.63
2018-05-25T16:44:09.667Z,1.77
2018-05-25T16:46:37.187Z,1.87
2018-05-25T16:49:05.461Z,1.90
2018-05-25T16:51:33.017Z,1.57
2018-05-25T16:54:00.550Z,1.20
2018-05-25T16:56:28.048Z,1.30
2018-05-25T16:58:56.399Z,1.70
2018-05-25T17:01:23.871Z,1.77
2018-05-25T17:03:53.109Z,1.20
2018-05-25T17:06:21.590Z,1.23
2018-05-25T17:08:49.119Z,1.77
2018-05-25T17:11:17.384Z,1.50
2018-05-25T17:13:45.671Z,1.60
2018-05-25T17:16:13.168Z,1.27
2018-05-25T17:18:40.690Z,1.23
2018-05-25T17:21:08.264Z,1.37
2018-05-25T17:23:35.728Z,1.60
2018-05-25T17:26:05.228Z,1.70
2018-05-25T17:28:32.733Z,1.37
2018-05-25T17:31:00.275Z,1.40
2018-05-25T17:33:27.779Z,1.50
2018-05-25T17:35:55.315Z,1.40
2018-05-25T17:38:23.583Z,1.33
2018-05-25T17:40:51.100Z,1.67
2018-05-25T17:43:18.645Z,1.50
2018-05-25T17:45:46.140Z,1.70
2018-05-25T17:48:13.667Z,1.40
2018-05-25T17:50:41.174Z,1.50
2018-05-25T17:53:09.480Z,1.30
2018-05-25T17:55:36.990Z,1.33
2018-05-25T17:58:04.516Z,1.40
2018-05-25T18:00:32.015Z,1.43
2018-05-25T18:02:59.518Z,1.73
2018-05-25T18:05:27.104Z,1.53
2018-05-25T18:07:54.659Z,1.30
2018-05-25T18:10:22.229Z,1.50
2018-05-25T18:12:49.728Z,1.80
2018-05-25T18:15:18.012Z,1.87
2018-05-25T18:17:45.557Z,1.67
2018-05-25T18:20:13.872Z,1.20
2018-05-25T18:22:41.427Z,1.67
2018-05-25T18:25:08.937Z,1.33
2018-05-25T18:27:38.220Z,1.70
2018-05-25T18:30:05.732Z,1.80
2018-05-25T18:32:33.290Z,1.37
2018-05-25T18:35:01.772Z,1.73
2018-05-25T18:37:29.296Z,1.80
2018-05-25T18:39:57.565Z,1.90
2018-05-25T18:42:25.851Z,1.43
2018-05-25T18:44:54.124Z,1.40
2018-05-25T18:47:22.397Z,1.10
2018-05-25T18:49:50.683Z,1.70
2018-05-25T18:52:18.172Z,1.70
2018-05-25T18:54:47.645Z,1.50
2018-05-25T18:57:15.424Z,1.30
2018-05-25T18:59:44.782Z,1.80
2018-05-25T19:02:12.352Z,1.30
2018-05-25T19:04:41.058Z,1.50
2018-05-25T19:07:08.671Z,1.43
2018-05-25T19:09:37.417Z,1.40
2018-05-25T19:12:05.280Z,1.37
2018-05-25T19:14:32.819Z,1.70
2018-05-25T19:17:00.600Z,1.53
2018-05-25T19:19:28.344Z,1.50
2018-05-25T19:21:55.998Z,1.33
2018-05-25T19:24:23.531Z,1.30
2018-05-25T19:26:51.091Z,1.40
2018-05-25T19:29:18.566Z,1.70
2018-05-25T19:31:46.847Z,1.40
2018-05-25T19:34:15.112Z,1.40
2018-05-25T19:36:43.409Z,1.30
2018-05-25T19:39:10.936Z,1.60
2018-05-25T19:41:39.200Z,1.47
2018-05-25T19:44:06.761Z,1.20
2018-05-25T19:46:34.260Z,1.33
2018-05-25T19:49:01.769Z,1.63
2018-05-25T19:51:29.297Z,1.80
2018-05-25T19:53:57.837Z,1.60
2018-05-25T19:56:26.098Z,1.57
2018-05-25T19:58:54.415Z,1.53
2018-05-25T20:01:21.990Z,1.23
2018-05-25T20:03:49.494Z,1.50
2018-05-25T20:06:17.037Z,1.47
2018-05-25T20:08:46.075Z,1.37
2018-05-25T20:11:13.616Z,1.50
2018-05-25T20:13:41.935Z,1.30
2018-05-25T20:16:09.463Z,1.87
2018-05-25T20:18:37.040Z,1.83
2018-05-25T20:21:04.547Z,1.77
2018-05-25T20:23:32.844Z,1.90
2018-05-25T20:26:00.364Z,1.57
2018-05-25T20:28:28.845Z,1.60
2018-05-25T20:30:57.909Z,1.70
2018-05-25T20:33:25.400Z,1.37
2018-05-25T20:35:53.695Z,1.83
2018-05-25T20:38:21.971Z,1.90
2018-05-25T20:40:50.325Z,1.47
2018-05-25T20:43:17.805Z,1.67
2018-05-25T20:45:46.102Z,1.30
2018-05-25T20:48:14.571Z,1.43
2018-05-25T20:50:42.074Z,1.40
2018-05-25T20:53:09.595Z,1.20
2018-05-25T20:55:37.098Z,1.33
2018-05-25T20:58:06.357Z,1.63
2018-05-25T21:00:33.874Z,2.00
2018-05-25T21:03:01.442Z,1.47
2018-05-25T21:05:29.714Z,1.40
2018-05-25T21:07:57.993Z,1.70
2018-05-25T21:10:26.298Z,1.80
2018-05-25T21:12:54.775Z,1.70
2018-05-25T21:15:22.302Z,1.73
2018-05-25T21:17:50.730Z,1.80
2018-05-25T21:20:18.974Z,1.63
2018-05-25T21:22:47.458Z,1.67
2018-05-25T21:25:14.964Z,2.20
2018-05-25T21:27:42.507Z,1.90
2018-05-25T21:30:10.017Z,1.77
2018-05-25T21:32:37.559Z,2.00
2018-05-25T21:35:05.824Z,1.40
2018-05-25T21:37:33.349Z,1.57
2018-05-25T21:40:00.865Z,1.87
2018-05-25T21:42:29.147Z,2.90
2018-05-25T21:44:56.688Z,2.07
2018-05-25T21:47:24.959Z,1.90
2018-05-25T21:49:53.253Z,1.80
2018-05-25T21:52:20.763Z,1.63
2018-05-25T21:54:48.283Z,1.57
2018-05-25T21:57:15.782Z,1.70
2018-05-25T21:59:43.347Z,1.83
2018-05-25T22:02:10.853Z,2.03
2018-05-25T22:04:38.379Z,1.83
2018-05-25T22:07:06.667Z,1.27
2018-05-25T22:09:34.250Z,1.90
2018-05-25T22:12:01.780Z,1.67
2018-05-25T22:14:30.068Z,1.97
2018-05-25T22:16:57.610Z,1.73
2018-05-25T22:19:25.867Z,1.90
2018-05-25T22:21:54.152Z,1.60
2018-05-25T22:24:22.442Z,1.70
2018-05-25T22:26:50.102Z,1.90
2018-05-25T22:29:18.368Z,1.70
2018-05-25T22:31:46.688Z,1.40
2018-05-25T22:34:14.221Z,1.90
2018-05-25T22:36:41.722Z,1.60
2018-05-25T22:39:09.458Z,1.47
2018-05-25T22:41:37.317Z,1.60
2018-05-25T22:44:18.905Z,1.73
2018-05-25T22:46:58.751Z,1.80
2018-05-25T22:49:38.396Z,2.13
2018-05-25T22:52:15.989Z,1.80
2018-05-25T22:54:43.748Z,1.60
2018-05-25T22:57:11.507Z,1.67
2018-05-25T22:59:39.179Z,1.53
2018-05-25T23:02:06.946Z,1.60
2018-05-25T23:04:35.298Z,1.80
2018-05-25T23:07:02.830Z,1.60
2018-05-25T23:09:31.249Z,1.67
2018-05-25T23:11:58.783Z,1.37
2018-05-25T23:14:27.042Z,1.90
2018-05-25T23:16:55.338Z,1.47
2018-05-25T23:19:22.842Z,1.73
2018-05-25T23:21:50.411Z,1.57
2018-05-25T23:24:17.924Z,1.73
2018-05-25T23:26:45.451Z,1.80
2018-05-25T23:29:13.723Z,1.70
2018-05-25T23:31:41.991Z,1.30
2018-05-25T23:34:10.285Z,1.43
2018-05-25T23:36:38.552Z,2.23
2018-05-25T23:39:06.862Z,2.77
2018-05-25T23:41:34.396Z,2.63
2018-05-25T23:44:02.681Z,5.17
2018-05-25T23:46:30.189Z,8.23
2018-05-25T23:48:57.714Z,7.00
2018-05-25T23:51:25.212Z,5.90
2018-05-25T23:53:52.764Z,7.97
2018-05-25T23:56:21.067Z,6.90
2018-05-25T23:58:49.331Z,7.27
